createdAt,value
2018-09-19T00:00:09.994Z,101117.00
2018-09-19T00:02:14.880Z,101115.00
2018-09-19T00:04:17.800Z,101115.00
2018-09-19T00:06:20.751Z,101113.00
2018-09-19T00:08:23.743Z,101117.00
2018-09-19T00:10:26.714Z,101120.00
2018-09-19T00:12:29.683Z,101123.00
2018-09-19T00:14:32.753Z,101131.00
2018-09-19T00:16:35.830Z,101126.00
2018-09-19T00:18:38.909Z,101130.00
2018-09-19T00:20:43.980Z,101128.00
2018-09-19T00:22:47.005Z,101134.00
2018-09-19T00:24:50.090Z,101134.00
2018-09-19T00:26:53.449Z,101127.00
2018-09-19T00:28:56.466Z,101134.00
2018-09-19T00:30:59.501Z,101132.00
2018-09-19T00:33:02.545Z,101137.00
2018-09-19T00:35:05.547Z,101142.00
2018-09-19T00:37:08.583Z,101144.00
2018-09-19T00:39:13.387Z,101146.00
2018-09-19T00:41:16.399Z,101158.00
2018-09-19T00:43:19.410Z,101154.00
2018-09-19T00:45:22.414Z,101153.00
2018-09-19T00:47:25.425Z,101151.00
2018-09-19T00:49:28.475Z,101156.00
2018-09-19T00:51:31.521Z,101161.00
2018-09-19T00:53:34.496Z,101161.00
2018-09-19T00:55:37.794Z,101167.00
2018-09-19T00:57:40.777Z,101166.00
2018-09-19T00:59:45.540Z,101170.00
2018-09-19T01:01:48.828Z,101176.00
2018-09-19T01:03:51.878Z,101179.00
2018-09-19T01:05:54.906Z,101179.00
2018-09-19T01:07:58.193Z,101180.00
2018-09-19T01:10:01.239Z,101178.00
2018-09-19T01:12:04.503Z,101185.00
2018-09-19T01:14:07.509Z,101184.00
2018-09-19T01:16:10.534Z,101187.00
2018-09-19T01:18:15.224Z,101192.00
2018-09-19T01:20:18.218Z,101195.00
2018-09-19T01:22:21.204Z,101202.00
2018-09-19T01:24:24.221Z,101201.00
2018-09-19T01:26:27.233Z,101201.00
2018-09-19T01:28:30.171Z,101205.00
2018-09-19T01:30:33.129Z,101205.00
2018-09-19T01:32:36.109Z,101212.00
2018-09-19T01:34:39.063Z,101220.00
2018-09-19T01:36:43.802Z,101221.00
2018-09-19T01:38:46.781Z,101229.00
2018-09-19T01:40:49.751Z,101231.00
2018-09-19T01:42:52.745Z,101239.00
2018-09-19T01:44:55.714Z,101252.00
2018-09-19T01:46:58.656Z,101256.00
2018-09-19T01:49:01.646Z,101259.00
2018-09-19T01:51:04.582Z,101257.00
2018-09-19T01:53:07.843Z,101268.00
2018-09-19T01:55:10.809Z,101265.00
2018-09-19T01:57:15.419Z,101273.00
2018-09-19T01:59:18.392Z,101287.00
2018-09-19T02:01:21.646Z,101280.00
2018-09-19T02:03:24.625Z,101286.00
2018-09-19T02:05:27.602Z,101285.00
2018-09-19T02:07:30.572Z,101287.00
2018-09-19T02:09:33.545Z,101293.00
2018-09-19T02:11:36.504Z,101300.00
2018-09-19T02:13:39.505Z,101309.00
2018-09-19T02:15:44.285Z,101315.00
2018-09-19T02:17:47.293Z,101319.00
2018-09-19T02:19:50.285Z,101314.00
2018-09-19T02:21:53.229Z,101311.00
2018-09-19T02:23:56.257Z,101311.00
2018-09-19T02:25:59.197Z,101314.00
2018-09-19T02:28:02.303Z,101310.00
2018-09-19T02:30:05.310Z,101313.00
2018-09-19T02:32:08.275Z,101316.00
2018-09-19T02:34:13.192Z,101320.00
2018-09-19T02:36:23.454Z,101321.00
2018-09-19T02:38:26.482Z,101318.00
2018-09-19T02:40:29.427Z,101325.00
2018-09-19T02:42:32.456Z,101327.00
2018-09-19T02:44:35.461Z,101335.00
2018-09-19T02:46:38.410Z,101342.00
2018-09-19T02:48:42.810Z,101339.00
2018-09-19T02:50:45.799Z,101335.00
2018-09-19T02:52:53.667Z,101344.00
2018-09-19T02:54:56.675Z,101347.00
2018-09-19T02:56:59.618Z,101342.00
2018-09-19T02:59:02.747Z,101340.00
2018-09-19T03:01:05.716Z,101346.00
2018-09-19T03:03:08.690Z,101351.00
2018-09-19T03:05:12.897Z,101350.00
2018-09-19T03:07:15.861Z,101356.00
2018-09-19T03:09:18.847Z,101348.00
2018-09-19T03:11:21.825Z,101349.00
2018-09-19T03:13:24.782Z,101349.00
2018-09-19T03:15:27.809Z,101355.00
2018-09-19T03:17:30.866Z,101359.00
2018-09-19T03:19:33.746Z,101365.00
2018-09-19T03:21:36.711Z,101367.00
2018-09-19T03:23:39.734Z,101368.00
2018-09-19T03:25:43.205Z,101377.00
2018-09-19T03:27:46.209Z,101381.00
2018-09-19T03:29:49.668Z,101391.00
2018-09-19T03:31:52.646Z,101387.00
2018-09-19T03:33:55.613Z,101382.00
2018-09-19T03:35:58.592Z,101384.00
2018-09-19T03:38:01.580Z,101389.00
2018-09-19T03:40:04.726Z,101381.00
2018-09-19T03:42:07.737Z,101383.00
2018-09-19T03:44:10.733Z,101382.00
2018-09-19T03:46:15.408Z,101391.00
2018-09-19T03:48:18.420Z,101390.00
2018-09-19T03:50:21.479Z,101393.00
2018-09-19T03:52:24.525Z,101395.00
2018-09-19T03:54:27.552Z,101401.00
2018-09-19T03:56:30.618Z,101398.00
2018-09-19T03:58:33.606Z,101404.00
2018-09-19T04:00:36.631Z,101403.00
2018-09-19T04:02:39.602Z,101411.00
2018-09-19T04:04:43.889Z,101401.00
2018-09-19T04:06:46.937Z,101409.00
2018-09-19T04:08:49.912Z,101411.00
2018-09-19T04:10:53.185Z,101417.00
2018-09-19T04:12:56.146Z,101413.00
2018-09-19T04:14:59.208Z,101421.00
2018-09-19T04:17:02.246Z,101420.00
2018-09-19T04:19:05.546Z,101416.00
2018-09-19T04:21:08.544Z,101420.00
2018-09-19T04:23:12.787Z,101423.00
2018-09-19T04:25:15.804Z,101423.00
2018-09-19T04:27:18.780Z,101422.00
2018-09-19T04:29:21.892Z,101425.00
2018-09-19T04:31:24.968Z,101427.00
2018-09-19T04:33:27.939Z,101428.00
2018-09-19T04:35:31.046Z,101432.00
2018-09-19T04:37:34.027Z,101431.00
2018-09-19T04:39:37.070Z,101427.00
2018-09-19T04:41:40.143Z,101433.00
2018-09-19T04:43:44.970Z,101433.00
2018-09-19T04:45:48.324Z,101439.00
2018-09-19T04:47:51.352Z,101441.00
2018-09-19T04:49:54.338Z,101444.00
2018-09-19T04:51:57.512Z,101443.00
2018-09-19T04:54:00.492Z,101446.00
2018-09-19T04:56:03.504Z,101447.00
2018-09-19T04:58:06.553Z,101454.00
2018-09-19T05:00:09.576Z,101452.00
2018-09-19T05:02:13.882Z,101457.00
2018-09-19T05:04:16.889Z,101459.00
2018-09-19T05:06:19.894Z,101462.00
2018-09-19T05:08:22.993Z,101467.00
2018-09-19T05:10:26.014Z,101467.00
2018-09-19T05:12:28.972Z,101471.00
2018-09-19T05:14:32.092Z,101471.00
2018-09-19T05:16:35.085Z,101476.00
2018-09-19T05:18:38.072Z,101476.00
2018-09-19T05:20:42.334Z,101481.00
2018-09-19T05:22:45.387Z,101479.00
2018-09-19T05:24:48.443Z,101480.00
2018-09-19T05:26:51.458Z,101483.00
2018-09-19T05:28:54.490Z,101484.00
2018-09-19T05:30:57.502Z,101487.00
2018-09-19T05:33:00.477Z,101488.00
2018-09-19T05:35:03.612Z,101484.00
2018-09-19T05:37:06.566Z,101491.00
2018-09-19T05:39:09.587Z,101488.00
2018-09-19T05:41:14.230Z,101493.00
2018-09-19T05:43:17.225Z,101500.00
2018-09-19T05:45:20.232Z,101497.00
2018-09-19T05:47:23.188Z,101497.00
2018-09-19T05:49:26.284Z,101504.00
2018-09-19T05:51:29.270Z,101506.00
2018-09-19T05:53:32.282Z,101509.00
2018-09-19T05:55:35.288Z,101511.00
2018-09-19T05:57:38.288Z,101517.00
2018-09-19T05:59:43.111Z,101518.00
2018-09-19T06:01:46.089Z,101516.00
2018-09-19T06:03:49.371Z,101518.00
2018-09-19T06:05:52.464Z,101515.00
2018-09-19T06:07:55.512Z,101524.00
2018-09-19T06:09:58.769Z,101516.00
2018-09-19T06:12:01.723Z,101523.00
2018-09-19T06:14:04.765Z,101525.00
2018-09-19T06:16:07.766Z,101522.00
2018-09-19T06:18:10.738Z,101528.00
2018-09-19T06:20:15.212Z,101525.00
2018-09-19T06:22:18.175Z,101529.00
2018-09-19T06:24:21.183Z,101530.00
2018-09-19T06:26:24.765Z,101536.00
2018-09-19T06:28:27.703Z,101541.00
2018-09-19T06:30:30.653Z,101548.00
2018-09-19T06:32:33.764Z,101544.00
2018-09-19T06:34:36.726Z,101550.00
2018-09-19T06:36:39.683Z,101553.00
2018-09-19T06:38:44.389Z,101552.00
2018-09-19T06:40:47.513Z,101559.00
2018-09-19T06:42:50.421Z,101557.00
2018-09-19T06:44:53.454Z,101559.00
2018-09-19T06:46:56.472Z,101552.00
2018-09-19T06:48:59.551Z,101558.00
2018-09-19T06:51:02.674Z,101560.00
2018-09-19T06:53:05.738Z,101557.00
2018-09-19T06:55:08.765Z,101558.00
2018-09-19T06:57:13.854Z,101564.00
2018-09-19T06:59:16.813Z,101565.00
2018-09-19T07:01:19.887Z,101564.00
2018-09-19T07:03:22.921Z,101562.00
2018-09-19T07:05:25.937Z,101565.00
2018-09-19T07:07:29.549Z,101562.00
2018-09-19T07:09:32.599Z,101574.00
2018-09-19T07:11:35.673Z,101571.00
2018-09-19T07:13:38.645Z,101571.00
2018-09-19T07:15:43.539Z,101570.00
2018-09-19T07:17:46.575Z,101575.00
2018-09-19T07:19:49.763Z,101585.00
2018-09-19T07:21:54.767Z,101578.00
2018-09-19T07:23:58.113Z,101579.00
2018-09-19T07:26:01.068Z,101586.00
2018-09-19T07:28:04.537Z,101587.00
2018-09-19T07:30:07.557Z,101584.00
2018-09-19T07:32:10.519Z,101594.00
2018-09-19T07:34:15.255Z,101593.00
2018-09-19T07:36:18.254Z,101593.00
2018-09-19T07:38:21.349Z,101589.00
2018-09-19T07:40:24.423Z,101590.00
2018-09-19T07:42:27.429Z,101596.00
2018-09-19T07:44:30.397Z,101579.00
2018-09-19T07:46:33.409Z,101580.00
2018-09-19T07:48:36.443Z,101580.00
2018-09-19T07:50:39.383Z,101586.00
2018-09-19T07:52:44.017Z,101585.00
2018-09-19T07:54:47.371Z,101588.00
2018-09-19T07:56:50.359Z,101587.00
2018-09-19T07:58:53.655Z,101589.00
2018-09-19T08:03:23.080Z,101588.00
2018-09-19T08:05:32.670Z,101589.00
2018-09-19T08:07:43.975Z,101583.00
2018-09-19T08:09:53.273Z,101581.00
2018-09-19T08:12:02.434Z,101582.00
2018-09-19T08:14:13.780Z,101581.00
2018-09-19T08:16:23.109Z,101580.00
2018-09-19T08:18:32.406Z,101580.00
2018-09-19T08:20:43.226Z,101577.00
2018-09-19T08:22:52.602Z,101574.00
2018-09-19T08:25:01.730Z,101574.00
2018-09-19T08:27:10.924Z,101574.00
2018-09-19T08:29:20.031Z,101571.00
2018-09-19T08:31:29.264Z,101571.00
2018-09-19T08:33:38.279Z,101563.00
2018-09-19T08:35:47.780Z,101563.00
2018-09-19T08:37:56.888Z,101574.00
2018-09-19T08:40:06.716Z,101571.00
2018-09-19T08:42:16.734Z,101575.00
2018-09-19T08:44:26.110Z,101573.00
2018-09-19T08:46:35.216Z,101573.00
2018-09-19T08:48:44.549Z,101570.00
2018-09-19T08:50:53.909Z,101568.00
2018-09-19T08:53:03.611Z,101576.00
2018-09-19T08:55:15.149Z,101575.00
2018-09-19T08:57:24.322Z,101575.00
2018-09-19T08:59:33.674Z,101576.00
2018-09-19T09:01:45.043Z,101579.00
2018-09-19T09:03:54.186Z,101575.00
2018-09-19T09:06:03.435Z,101577.00
2018-09-19T09:08:14.935Z,101565.00
2018-09-19T09:10:24.257Z,101564.00
2018-09-19T09:12:33.381Z,101571.00
2018-09-19T09:14:44.451Z,101575.00
2018-09-19T09:16:53.619Z,101566.00
2018-09-19T09:18:57.599Z,101567.00
2018-09-19T09:21:00.583Z,101561.00
2018-09-19T09:23:03.576Z,101561.00
2018-09-19T09:25:06.618Z,101560.00
2018-09-19T09:27:09.641Z,101563.00
2018-09-19T09:29:14.238Z,101563.00
2018-09-19T09:31:17.277Z,101563.00
2018-09-19T09:33:20.260Z,101560.00
2018-09-19T09:35:23.235Z,101557.00
2018-09-19T09:37:26.288Z,101558.00
2018-09-19T09:39:29.321Z,101554.00
2018-09-19T09:41:32.315Z,101553.00
2018-09-19T09:43:35.446Z,101549.00
2018-09-19T09:45:38.425Z,101545.00
2018-09-19T09:47:43.317Z,101550.00
2018-09-19T09:49:46.623Z,101549.00
2018-09-19T09:51:49.688Z,101546.00
2018-09-19T09:53:52.682Z,101544.00
2018-09-19T09:55:55.724Z,101545.00
2018-09-19T09:57:59.057Z,101547.00
2018-09-19T10:00:02.052Z,101549.00
2018-09-19T10:02:05.136Z,101548.00
2018-09-19T10:04:08.167Z,101539.00
2018-09-19T10:06:11.160Z,101538.00
2018-09-19T10:08:15.126Z,101538.00
2018-09-19T10:10:18.364Z,101534.00
2018-09-19T10:12:21.385Z,101538.00
2018-09-19T10:14:24.333Z,101527.00
2018-09-19T10:16:27.406Z,101531.00
2018-09-19T10:18:30.446Z,101530.00
2018-09-19T10:20:33.491Z,101531.00
2018-09-19T10:22:36.534Z,101531.00
2018-09-19T10:24:39.604Z,101528.00
2018-09-19T10:26:44.326Z,101522.00
2018-09-19T10:28:47.706Z,101524.00
2018-09-19T10:30:50.746Z,101516.00
2018-09-19T10:32:53.789Z,101519.00
2018-09-19T10:34:57.098Z,101509.00
2018-09-19T10:37:00.083Z,101512.00
2018-09-19T10:39:03.671Z,101511.00
2018-09-19T10:41:07.080Z,101511.00
2018-09-19T10:43:10.021Z,101502.00
2018-09-19T10:45:14.964Z,101507.00
2018-09-19T10:47:18.003Z,101496.00
2018-09-19T10:49:21.049Z,101497.00
2018-09-19T10:51:24.112Z,101500.00
2018-09-19T10:53:27.093Z,101494.00
2018-09-19T10:55:30.215Z,101493.00
2018-09-19T10:57:33.491Z,101495.00
2018-09-19T10:59:36.529Z,101492.00
2018-09-19T11:01:39.581Z,101487.00
2018-09-19T11:03:43.996Z,101477.00
2018-09-19T11:05:47.005Z,101473.00
2018-09-19T11:07:50.075Z,101475.00
2018-09-19T11:09:53.095Z,101471.00
2018-09-19T11:11:56.071Z,101467.00
2018-09-19T11:13:59.055Z,101476.00
2018-09-19T11:16:02.329Z,101471.00
2018-09-19T11:18:05.445Z,101474.00
2018-09-19T11:20:08.449Z,101472.00
2018-09-19T11:22:12.842Z,101474.00
2018-09-19T11:24:15.820Z,101467.00
2018-09-19T11:26:18.820Z,101461.00
2018-09-19T11:28:21.837Z,101461.00
2018-09-19T11:30:24.817Z,101451.00
2018-09-19T11:32:27.815Z,101446.00
2018-09-19T11:34:31.149Z,101446.00
2018-09-19T11:36:34.174Z,101447.00
2018-09-19T11:38:37.152Z,101445.00
2018-09-19T11:40:40.156Z,101447.00
2018-09-19T11:42:44.991Z,101441.00
2018-09-19T11:44:48.010Z,101437.00
2018-09-19T11:46:51.201Z,101433.00
2018-09-19T11:48:54.180Z,101438.00
2018-09-19T11:50:57.418Z,101442.00
2018-09-19T11:53:00.460Z,101430.00
2018-09-19T11:55:03.520Z,101434.00
2018-09-19T11:57:06.576Z,101427.00
2018-09-19T11:59:09.560Z,101431.00
2018-09-19T12:01:13.746Z,101439.00
2018-09-19T12:03:16.774Z,101436.00
2018-09-19T12:05:19.792Z,101431.00
2018-09-19T12:07:22.813Z,101427.00
2018-09-19T12:09:25.784Z,101432.00
2018-09-19T12:11:28.763Z,101434.00
2018-09-19T12:13:31.755Z,101430.00
2018-09-19T12:15:35.488Z,101425.00
2018-09-19T12:17:38.438Z,101424.00
2018-09-19T12:19:43.197Z,101412.00
2018-09-19T12:21:46.366Z,101414.00
2018-09-19T12:23:49.454Z,101409.00
2018-09-19T12:25:52.394Z,101405.00
2018-09-19T12:27:55.688Z,101403.00
2018-09-19T12:29:58.802Z,101404.00
2018-09-19T12:32:01.790Z,101403.00
2018-09-19T12:34:04.945Z,101393.00
2018-09-19T12:36:07.906Z,101389.00
2018-09-19T12:38:10.844Z,101389.00
2018-09-19T12:40:15.908Z,101383.00
2018-09-19T12:42:19.943Z,101385.00
2018-09-19T12:44:24.270Z,101384.00
2018-09-19T12:46:27.241Z,101386.00
2018-09-19T12:48:30.249Z,101386.00
2018-09-19T12:50:33.413Z,101392.00
2018-09-19T12:52:36.576Z,101386.00
2018-09-19T12:54:39.539Z,101384.00
2018-09-19T12:56:44.040Z,101378.00
2018-09-19T12:58:47.088Z,101379.00
2018-09-19T13:00:50.536Z,101374.00
2018-09-19T13:02:53.559Z,101378.00
2018-09-19T13:07:05.497Z,101373.00
2018-09-19T13:09:10.016Z,101361.00
2018-09-19T13:11:14.857Z,101356.00
2018-09-19T13:13:17.840Z,101357.00
2018-09-19T13:15:20.838Z,101361.00
2018-09-19T13:17:23.814Z,101360.00
2018-09-19T13:19:26.802Z,101356.00
2018-09-19T13:21:29.733Z,101354.00
2018-09-19T13:23:32.802Z,101342.00
2018-09-19T13:25:35.796Z,101333.00
2018-09-19T13:27:38.773Z,101334.00
2018-09-19T13:29:43.786Z,101337.00
2018-09-19T13:31:46.755Z,101333.00
2018-09-19T13:33:49.700Z,101324.00
2018-09-19T13:35:52.736Z,101326.00
2018-09-19T13:37:55.698Z,101329.00
2018-09-19T13:39:58.825Z,101323.00
2018-09-19T13:42:02.236Z,101316.00
2018-09-19T13:44:05.231Z,101311.00
2018-09-19T13:46:08.480Z,101315.00
2018-09-19T13:48:13.001Z,101309.00
2018-09-19T13:51:21.976Z,101306.00
2018-09-19T13:53:25.074Z,101314.00
2018-09-19T13:55:28.164Z,101320.00
2018-09-19T13:57:31.218Z,101314.00
2018-09-19T13:59:34.490Z,101313.00
2018-09-19T14:01:37.580Z,101315.00
2018-09-19T14:03:40.652Z,101312.00
2018-09-19T14:05:45.601Z,101310.00
2018-09-19T14:07:48.692Z,101308.00
2018-09-19T14:09:51.780Z,101313.00
2018-09-19T14:11:55.125Z,101309.00
2018-09-19T14:13:58.177Z,101303.00
2018-09-19T14:16:01.232Z,101298.00
2018-09-19T14:18:04.689Z,101298.00
2018-09-19T14:20:07.770Z,101308.00
2018-09-19T14:22:10.873Z,101301.00
2018-09-19T14:24:16.113Z,101300.00
2018-09-19T14:26:19.249Z,101292.00
2018-09-19T14:28:22.352Z,101295.00
2018-09-19T14:30:25.810Z,101287.00
2018-09-19T14:32:28.864Z,101288.00
2018-09-19T14:34:31.909Z,101289.00
2018-09-19T14:36:35.297Z,101282.00
2018-09-19T14:38:38.412Z,101286.00
2018-09-19T14:40:43.669Z,101283.00
2018-09-19T14:42:46.977Z,101279.00
2018-09-19T14:44:50.025Z,101285.00
2018-09-19T14:46:52.970Z,101291.00
2018-09-19T14:48:56.306Z,101294.00
2018-09-19T14:50:59.252Z,101288.00
2018-09-19T14:53:02.202Z,101288.00
2018-09-19T14:55:05.395Z,101284.00
2018-09-19T14:57:08.348Z,101285.00
2018-09-19T14:59:13.048Z,101281.00
2018-09-19T15:01:16.343Z,101275.00
2018-09-19T15:03:19.337Z,101277.00
2018-09-19T15:05:22.313Z,101286.00
2018-09-19T15:07:25.561Z,101285.00
2018-09-19T15:09:28.591Z,101279.00
2018-09-19T15:11:31.577Z,101289.00
2018-09-19T15:13:34.875Z,101281.00
2018-09-19T15:15:37.884Z,101265.00
2018-09-19T15:17:41.045Z,101277.00
2018-09-19T15:19:44.041Z,101270.00
2018-09-19T15:21:47.004Z,101264.00
2018-09-19T15:23:50.794Z,101252.00
2018-09-19T15:25:53.744Z,101251.00
2018-09-19T15:27:56.767Z,101240.00
2018-09-19T15:29:59.927Z,101251.00
2018-09-19T15:32:02.892Z,101244.00
2018-09-19T15:34:05.925Z,101243.00
2018-09-19T15:36:09.139Z,101245.00
2018-09-19T15:38:13.524Z,101241.00
2018-09-19T15:40:16.445Z,101232.00
2018-09-19T15:42:19.916Z,101236.00
2018-09-19T15:44:23.090Z,101233.00
2018-09-19T15:46:26.209Z,101226.00
2018-09-19T15:48:29.499Z,101226.00
2018-09-19T15:50:32.571Z,101228.00
2018-09-19T15:52:35.800Z,101223.00
2018-09-19T15:54:38.895Z,101231.00
2018-09-19T15:56:43.564Z,101225.00
2018-09-19T15:58:46.910Z,101224.00
2018-09-19T16:00:50.190Z,101236.00
2018-09-19T16:02:53.234Z,101228.00
2018-09-19T16:04:56.541Z,101220.00
2018-09-19T16:06:59.761Z,101228.00
2018-09-19T16:09:03.913Z,101222.00
2018-09-19T16:11:07.299Z,101226.00
2018-09-19T16:13:10.371Z,101223.00
2018-09-19T16:15:15.142Z,101229.00
2018-09-19T16:17:18.454Z,101230.00
2018-09-19T16:19:21.531Z,101227.00
2018-09-19T16:21:24.620Z,101226.00
2018-09-19T16:23:27.913Z,101229.00
2018-09-19T16:25:30.996Z,101224.00
2018-09-19T16:27:34.066Z,101226.00
2018-09-19T16:29:37.420Z,101225.00
2018-09-19T16:31:40.451Z,101233.00
2018-09-19T16:33:45.482Z,101233.00
2018-09-19T16:35:48.915Z,101237.00
2018-09-19T16:37:51.946Z,101237.00
2018-09-19T16:39:55.061Z,101236.00
2018-09-19T16:41:58.985Z,101241.00
2018-09-19T16:44:02.063Z,101245.00
2018-09-19T16:46:05.502Z,101243.00
2018-09-19T16:48:08.860Z,101246.00
2018-09-19T16:50:13.301Z,101242.00
2018-09-19T16:52:16.328Z,101242.00
2018-09-19T16:54:19.610Z,101244.00
2018-09-19T16:56:22.667Z,101242.00
2018-09-19T16:58:25.732Z,101245.00
2018-09-19T17:00:29.068Z,101247.00
2018-09-19T17:02:32.124Z,101249.00
2018-09-19T17:04:35.195Z,101253.00
2018-09-19T17:06:38.465Z,101249.00
2018-09-19T17:08:43.330Z,101252.00
2018-09-19T17:10:46.417Z,101255.00
2018-09-19T17:12:49.749Z,101255.00
2018-09-19T17:14:52.839Z,101259.00
2018-09-19T17:16:55.977Z,101261.00
2018-09-19T17:18:59.300Z,101259.00
2018-09-19T17:21:02.395Z,101261.00
2018-09-19T17:23:05.446Z,101260.00
2018-09-19T17:25:08.763Z,101264.00
2018-09-19T17:27:13.243Z,101265.00
2018-09-19T17:29:16.317Z,101264.00
2018-09-19T17:31:19.666Z,101266.00
2018-09-19T17:33:22.695Z,101268.00
2018-09-19T17:35:25.731Z,101272.00
2018-09-19T17:37:28.982Z,101274.00
2018-09-19T17:39:32.218Z,101273.00
2018-09-19T17:41:35.287Z,101281.00
2018-09-19T17:43:39.929Z,101286.00
2018-09-19T17:45:44.587Z,101288.00
2018-09-19T17:47:47.737Z,101282.00
2018-09-19T17:49:51.203Z,101288.00
2018-09-19T17:51:54.284Z,101285.00
2018-09-19T17:53:57.310Z,101286.00
2018-09-19T17:56:00.716Z,101293.00
2018-09-19T17:58:04.078Z,101292.00
2018-09-19T18:00:08.721Z,101295.00
2018-09-19T18:02:13.484Z,101297.00
2018-09-19T18:04:16.527Z,101293.00
2018-09-19T18:06:19.544Z,101295.00
2018-09-19T18:08:22.711Z,101296.00
2018-09-19T18:10:25.697Z,101296.00
2018-09-19T18:12:28.703Z,101300.00
2018-09-19T18:14:31.935Z,101297.00
2018-09-19T18:16:35.151Z,101300.00
2018-09-19T18:18:38.140Z,101297.00
2018-09-19T18:20:41.190Z,101300.00
2018-09-19T18:22:45.305Z,101305.00
2018-09-19T18:24:48.386Z,101305.00
2018-09-19T18:26:51.444Z,101308.00
2018-09-19T18:28:54.993Z,101311.00
2018-09-19T18:30:58.033Z,101305.00
2018-09-19T18:33:01.230Z,101309.00
2018-09-19T18:35:04.520Z,101308.00
2018-09-19T18:37:24.665Z,101311.00
2018-09-19T18:39:27.640Z,101312.00
2018-09-19T18:41:30.861Z,101316.00
2018-09-19T18:43:33.837Z,101316.00
2018-09-19T18:45:37.932Z,101318.00
2018-09-19T18:47:42.582Z,101320.00
2018-09-19T18:49:45.782Z,101320.00
2018-09-19T18:51:48.847Z,101320.00
2018-09-19T18:53:52.102Z,101322.00
2018-09-19T18:55:55.192Z,101323.00
2018-09-19T18:57:58.218Z,101332.00
2018-09-19T19:00:01.480Z,101335.00
2018-09-19T19:02:04.555Z,101337.00
2018-09-19T19:04:07.630Z,101336.00
2018-09-19T19:06:10.933Z,101340.00
2018-09-19T19:08:15.487Z,101339.00
2018-09-19T19:10:18.539Z,101338.00
2018-09-19T19:12:21.860Z,101346.00
2018-09-19T19:14:24.936Z,101342.00
2018-09-19T19:16:27.981Z,101340.00
2018-09-19T19:18:31.285Z,101342.00
2018-09-19T19:20:34.423Z,101337.00
2018-09-19T19:22:37.513Z,101342.00
2018-09-19T19:24:40.765Z,101345.00
2018-09-19T19:26:45.282Z,101344.00
2018-09-19T19:28:48.368Z,101345.00
2018-09-19T19:30:51.646Z,101343.00
2018-09-19T19:32:54.701Z,101343.00
2018-09-19T19:34:57.823Z,101344.00
2018-09-19T19:37:01.088Z,101340.00
2018-09-19T19:39:07.853Z,101346.00
2018-09-19T19:41:11.001Z,101350.00
2018-09-19T19:43:15.454Z,101346.00
2018-09-19T19:45:18.544Z,101354.00
2018-09-19T19:47:22.531Z,101352.00
2018-09-19T19:49:25.764Z,101351.00
2018-09-19T19:51:28.860Z,101348.00
2018-09-19T19:53:31.974Z,101351.00
2018-09-19T19:55:35.450Z,101351.00
2018-09-19T19:57:38.478Z,101353.00
2018-09-19T19:59:43.177Z,101352.00
2018-09-19T20:01:46.539Z,101353.00
2018-09-19T20:03:49.605Z,101357.00
2018-09-19T20:05:52.686Z,101358.00
2018-09-19T20:07:55.979Z,101354.00
2018-09-19T20:09:59.031Z,101357.00
2018-09-19T20:12:02.072Z,101363.00
2018-09-19T20:14:05.497Z,101359.00
2018-09-19T20:16:08.556Z,101359.00
2018-09-19T20:18:13.214Z,101360.00
2018-09-19T20:20:16.609Z,101362.00
2018-09-19T20:22:19.692Z,101360.00
2018-09-19T20:24:22.771Z,101361.00
2018-09-19T20:26:26.060Z,101366.00
2018-09-19T20:28:29.099Z,101367.00
2018-09-19T20:30:32.192Z,101367.00
2018-09-19T20:32:35.461Z,101371.00
2018-09-19T20:34:38.564Z,101369.00
2018-09-19T20:36:43.406Z,101370.00
2018-09-19T20:38:46.700Z,101367.00
2018-09-19T20:40:49.998Z,101365.00
2018-09-19T20:42:53.034Z,101362.00
2018-09-19T20:44:56.504Z,101364.00
2018-09-19T20:46:59.587Z,101364.00
2018-09-19T20:49:02.976Z,101365.00
2018-09-19T20:51:06.272Z,101368.00
2018-09-19T20:53:10.112Z,101367.00
2018-09-19T20:55:14.871Z,101368.00
2018-09-19T20:57:18.170Z,101365.00
2018-09-19T20:59:21.263Z,101367.00
2018-09-19T21:01:24.996Z,101365.00
2018-09-19T21:03:28.537Z,101364.00
2018-09-19T21:05:31.614Z,101365.00
2018-09-19T21:07:34.652Z,101370.00
2018-09-19T21:09:38.047Z,101367.00
2018-09-19T21:11:41.121Z,101371.00
2018-09-19T21:13:45.440Z,101370.00
2018-09-19T21:15:48.968Z,101376.00
2018-09-19T21:17:52.059Z,101367.00
2018-09-19T21:19:55.176Z,101377.00
2018-09-19T21:21:59.429Z,101381.00
2018-09-19T21:24:02.495Z,101380.00
2018-09-19T21:26:05.639Z,101383.00
2018-09-19T21:28:08.953Z,101385.00
2018-09-19T21:30:13.792Z,101384.00
2018-09-19T21:32:16.897Z,101381.00
2018-09-19T21:34:20.317Z,101385.00
2018-09-19T21:36:23.398Z,101383.00
2018-09-19T21:38:26.464Z,101383.00
2018-09-19T21:40:29.822Z,101384.00
2018-09-19T21:42:32.895Z,101383.00
2018-09-19T21:44:36.479Z,101382.00
2018-09-19T21:46:39.723Z,101388.00
2018-09-19T21:48:44.081Z,101383.00
2018-09-19T21:50:47.045Z,101385.00
2018-09-19T21:52:50.361Z,101388.00
2018-09-19T21:54:53.337Z,101387.00
2018-09-19T21:56:56.664Z,101386.00
2018-09-19T21:58:59.628Z,101387.00
2018-09-19T22:01:08.077Z,101387.00
2018-09-19T22:03:13.052Z,101384.00
2018-09-19T22:05:16.145Z,101387.00
2018-09-19T22:07:19.131Z,101385.00
2018-09-19T22:09:22.420Z,101385.00
2018-09-19T22:11:25.410Z,101386.00
2018-09-19T22:13:28.410Z,101383.00
2018-09-19T22:15:31.673Z,101388.00
2018-09-19T22:17:34.646Z,101386.00
2018-09-19T22:19:37.656Z,101385.00
2018-09-19T22:21:40.901Z,101385.00
2018-09-19T22:23:45.649Z,101385.00
2018-09-19T22:25:48.671Z,101385.00
2018-09-19T22:27:51.827Z,101386.00
2018-09-19T22:29:54.814Z,101382.00
2018-09-19T22:31:57.789Z,101378.00
2018-09-19T22:34:01.112Z,101387.00
2018-09-19T22:36:04.092Z,101380.00
2018-09-19T22:38:07.128Z,101376.00
2018-09-19T22:40:10.435Z,101376.00
2018-09-19T22:42:14.780Z,101375.00
2018-09-19T22:44:17.877Z,101375.00
2018-09-19T22:46:21.452Z,101378.00
2018-09-19T22:48:24.546Z,101379.00
2018-09-19T22:50:27.626Z,101379.00
2018-09-19T22:52:31.012Z,101380.00
2018-09-19T22:54:34.080Z,101379.00
2018-09-19T22:56:37.121Z,101376.00
2018-09-19T22:58:40.436Z,101382.00
2018-09-19T23:00:45.162Z,101376.00
2018-09-19T23:02:48.334Z,101376.00
2018-09-19T23:04:51.736Z,101380.00
2018-09-19T23:06:54.789Z,101378.00
2018-09-19T23:08:57.845Z,101383.00
2018-09-19T23:11:01.204Z,101386.00
2018-09-19T23:13:04.262Z,101383.00
2018-09-19T23:15:07.312Z,101381.00
2018-09-19T23:17:10.619Z,101386.00
2018-09-19T23:19:15.417Z,101384.00
2018-09-19T23:21:18.519Z,101387.00
2018-09-19T23:23:21.882Z,101385.00
2018-09-19T23:25:24.955Z,101381.00
2018-09-19T23:27:28.007Z,101378.00
2018-09-19T23:29:31.257Z,101375.00
2018-09-19T23:31:34.366Z,101376.00
2018-09-19T23:33:37.491Z,101376.00
2018-09-19T23:35:40.757Z,101374.00